ADDS METAR Data INFO
IDs: Format: Raw Decoded Include TAF

Data at: 1747 UTC 25 Feb 2018

METAR for:KVES (Versailles/Darke Cnt, OH, US)
Text:KVES 251730Z AUTO 25012G18KT 10SM SCT022 05/02 A3001 RMK AO2
Temperature: 5.0°C ( 41°F)
Dewpoint: 2.0°C ( 36°F) [RH = 81%]
Pressure (altimeter):30.01 inches Hg (1016.3 mb)
Winds:from the WSW (250 degrees) at 14 MPH (12 knots; 6.2 m/s) gusting to 21 MPH (18 knots; 9.3 m/s)
Visibility:10 or more sm (16+ km)
Ceiling:at least 12,000 feet AGL
Clouds: scattered clouds at 2200 feet AGL
QC Flag:automated observation with no human augmentation